sensor_id;sensor_type;location;lat;lon;timestamp;P1;durP1;ratioP1;P2;durP2;ratioP2
77625;SDS011;66794;43.764;10.436;2024-03-22T00:02:26;26.00;;;20.27;;
77625;SDS011;66794;43.764;10.436;2024-03-22T00:05:12;28.70;;;19.73;;
77625;SDS011;66794;43.764;10.436;2024-03-22T00:07:58;25.38;;;19.52;;
77625;SDS011;66794;43.764;10.436;2024-03-22T00:10:43;30.08;;;19.73;;
77625;SDS011;66794;43.764;10.436;2024-03-22T00:13:29;27.60;;;19.85;;
77625;SDS011;66794;43.764;10.436;2024-03-22T00:16:15;26.02;;;19.63;;
77625;SDS011;66794;43.764;10.436;2024-03-22T00:19:00;25.17;;;19.20;;
77625;SDS011;66794;43.764;10.436;2024-03-22T00:21:46;24.55;;;18.30;;
77625;SDS011;66794;43.764;10.436;2024-03-22T00:24:32;22.67;;;17.85;;
77625;SDS011;66794;43.764;10.436;2024-03-22T00:27:17;25.90;;;17.35;;
77625;SDS011;66794;43.764;10.436;2024-03-22T00:30:03;23.42;;;18.10;;
77625;SDS011;66794;43.764;10.436;2024-03-22T00:32:50;21.35;;;16.95;;
77625;SDS011;66794;43.764;10.436;2024-03-22T00:35:36;25.30;;;17.88;;
77625;SDS011;66794;43.764;10.436;2024-03-22T00:38:21;26.95;;;18.90;;
77625;SDS011;66794;43.764;10.436;2024-03-22T00:41:07;22.98;;;17.77;;
77625;SDS011;66794;43.764;10.436;2024-03-22T00:43:53;28.13;;;20.75;;
77625;SDS011;66794;43.764;10.436;2024-03-22T00:46:38;31.48;;;20.38;;
77625;SDS011;66794;43.764;10.436;2024-03-22T00:49:24;28.65;;;21.33;;
77625;SDS011;66794;43.764;10.436;2024-03-22T00:52:09;28.55;;;21.13;;
77625;SDS011;66794;43.764;10.436;2024-03-22T00:54:55;27.30;;;20.40;;
77625;SDS011;66794;43.764;10.436;2024-03-22T00:57:41;26.63;;;20.63;;
77625;SDS011;66794;43.764;10.436;2024-03-22T01:00:26;27.33;;;19.98;;
77625;SDS011;66794;43.764;10.436;2024-03-22T01:03:12;27.02;;;20.42;;
77625;SDS011;66794;43.764;10.436;2024-03-22T01:05:58;27.45;;;20.02;;
77625;SDS011;66794;43.764;10.436;2024-03-22T01:08:43;24.15;;;19.08;;
77625;SDS011;66794;43.764;10.436;2024-03-22T01:11:29;25.65;;;18.38;;
77625;SDS011;66794;43.764;10.436;2024-03-22T01:14:14;24.50;;;17.95;;
77625;SDS011;66794;43.764;10.436;2024-03-22T01:17:00;26.85;;;18.50;;
77625;SDS011;66794;43.764;10.436;2024-03-22T01:19:46;23.52;;;15.98;;
77625;SDS011;66794;43.764;10.436;2024-03-22T01:22:31;23.77;;;16.77;;
77625;SDS011;66794;43.764;10.436;2024-03-22T01:25:17;33.40;;;17.55;;
77625;SDS011;66794;43.764;10.436;2024-03-22T01:28:03;19.80;;;15.48;;
77625;SDS011;66794;43.764;10.436;2024-03-22T01:30:49;21.67;;;16.42;;
77625;SDS011;66794;43.764;10.436;2024-03-22T01:33:35;24.65;;;16.50;;
77625;SDS011;66794;43.764;10.436;2024-03-22T01:36:20;23.50;;;16.10;;
77625;SDS011;66794;43.764;10.436;2024-03-22T01:39:06;21.35;;;15.63;;
77625;SDS011;66794;43.764;10.436;2024-03-22T01:41:52;23.10;;;15.07;;
77625;SDS011;66794;43.764;10.436;2024-03-22T01:44:37;23.20;;;16.67;;
77625;SDS011;66794;43.764;10.436;2024-03-22T01:47:23;21.33;;;16.75;;
77625;SDS011;66794;43.764;10.436;2024-03-22T01:50:09;28.13;;;19.15;;
77625;SDS011;66794;43.764;10.436;2024-03-22T01:52:55;27.10;;;20.40;;
77625;SDS011;66794;43.764;10.436;2024-03-22T01:55:41;25.08;;;18.05;;
77625;SDS011;66794;43.764;10.436;2024-03-22T01:58:26;24.52;;;18.63;;
77625;SDS011;66794;43.764;10.436;2024-03-22T02:01:12;26.85;;;18.20;;
77625;SDS011;66794;43.764;10.436;2024-03-22T02:03:57;24.95;;;19.02;;
77625;SDS011;66794;43.764;10.436;2024-03-22T02:06:43;25.45;;;17.02;;
77625;SDS011;66794;43.764;10.436;2024-03-22T02:09:29;20.73;;;16.45;;
77625;SDS011;66794;43.764;10.436;2024-03-22T02:12:14;20.70;;;15.07;;
77625;SDS011;66794;43.764;10.436;2024-03-22T02:15:01;19.23;;;15.13;;
77625;SDS011;66794;43.764;10.436;2024-03-22T02:17:47;21.40;;;15.30;;
77625;SDS011;66794;43.764;10.436;2024-03-22T02:20:33;21.58;;;15.30;;
77625;SDS011;66794;43.764;10.436;2024-03-22T02:23:23;21.38;;;14.63;;
77625;SDS011;66794;43.764;10.436;2024-03-22T02:26:08;18.90;;;14.60;;
77625;SDS011;66794;43.764;10.436;2024-03-22T02:28:54;18.38;;;15.25;;
77625;SDS011;66794;43.764;10.436;2024-03-22T02:31:40;18.58;;;14.55;;
77625;SDS011;66794;43.764;10.436;2024-03-22T02:34:25;18.45;;;13.70;;
77625;SDS011;66794;43.764;10.436;2024-03-22T02:37:11;19.70;;;14.98;;
77625;SDS011;66794;43.764;10.436;2024-03-22T02:39:56;16.65;;;13.85;;
77625;SDS011;66794;43.764;10.436;2024-03-22T02:42:42;18.30;;;13.05;;
77625;SDS011;66794;43.764;10.436;2024-03-22T02:45:28;16.85;;;13.80;;
77625;SDS011;66794;43.764;10.436;2024-03-22T02:48:13;20.05;;;14.75;;
77625;SDS011;66794;43.764;10.436;2024-03-22T02:50:59;17.77;;;14.10;;
77625;SDS011;66794;43.764;10.436;2024-03-22T02:53:45;14.70;;;12.57;;
77625;SDS011;66794;43.764;10.436;2024-03-22T02:56:30;10.65;;;9.55;;
77625;SDS011;66794;43.764;10.436;2024-03-22T02:59:16;10.88;;;9.77;;
77625;SDS011;66794;43.764;10.436;2024-03-22T03:02:01;15.30;;;11.38;;
77625;SDS011;66794;43.764;10.436;2024-03-22T03:04:47;14.38;;;11.20;;
77625;SDS011;66794;43.764;10.436;2024-03-22T03:07:33;13.07;;;11.57;;
77625;SDS011;66794;43.764;10.436;2024-03-22T03:10:19;14.52;;;10.75;;
77625;SDS011;66794;43.764;10.436;2024-03-22T03:13:05;13.45;;;11.27;;
77625;SDS011;66794;43.764;10.436;2024-03-22T03:15:51;15.73;;;11.85;;
77625;SDS011;66794;43.764;10.436;2024-03-22T03:18:36;14.23;;;11.77;;
77625;SDS011;66794;43.764;10.436;2024-03-22T03:21:22;16.92;;;14.20;;
77625;SDS011;66794;43.764;10.436;2024-03-22T03:24:07;19.63;;;14.82;;
77625;SDS011;66794;43.764;10.436;2024-03-22T03:26:54;16.23;;;12.77;;
77625;SDS011;66794;43.764;10.436;2024-03-22T03:29:40;14.50;;;12.73;;
77625;SDS011;66794;43.764;10.436;2024-03-22T03:32:26;17.88;;;11.25;;
77625;SDS011;66794;43.764;10.436;2024-03-22T03:35:11;12.95;;;9.85;;
77625;SDS011;66794;43.764;10.436;2024-03-22T03:37:57;15.55;;;10.00;;
77625;SDS011;66794;43.764;10.436;2024-03-22T03:40:43;12.70;;;10.25;;
77625;SDS011;66794;43.764;10.436;2024-03-22T03:43:28;14.02;;;9.00;;
77625;SDS011;66794;43.764;10.436;2024-03-22T03:46:14;13.27;;;9.95;;
77625;SDS011;66794;43.764;10.436;2024-03-22T03:48:59;12.38;;;10.15;;
77625;SDS011;66794;43.764;10.436;2024-03-22T03:51:45;19.27;;;12.77;;
77625;SDS011;66794;43.764;10.436;2024-03-22T03:54:31;17.38;;;12.52;;
77625;SDS011;66794;43.764;10.436;2024-03-22T03:57:16;18.33;;;13.05;;
77625;SDS011;66794;43.764;10.436;2024-03-22T04:00:02;17.13;;;12.35;;
77625;SDS011;66794;43.764;10.436;2024-03-22T04:02:48;17.55;;;12.75;;
77625;SDS011;66794;43.764;10.436;2024-03-22T04:05:34;18.27;;;13.05;;
77625;SDS011;66794;43.764;10.436;2024-03-22T04:08:20;17.15;;;11.98;;
77625;SDS011;66794;43.764;10.436;2024-03-22T04:11:05;15.95;;;12.25;;
77625;SDS011;66794;43.764;10.436;2024-03-22T04:13:51;15.25;;;11.52;;
77625;SDS011;66794;43.764;10.436;2024-03-22T04:16:37;16.48;;;11.85;;
77625;SDS011;66794;43.764;10.436;2024-03-22T04:19:22;17.35;;;11.75;;
77625;SDS011;66794;43.764;10.436;2024-03-22T04:22:08;14.73;;;11.32;;
77625;SDS011;66794;43.764;10.436;2024-03-22T04:24:54;16.27;;;10.77;;
77625;SDS011;66794;43.764;10.436;2024-03-22T04:27:39;15.15;;;10.88;;
77625;SDS011;66794;43.764;10.436;2024-03-22T04:30:26;17.08;;;11.93;;
77625;SDS011;66794;43.764;10.436;2024-03-22T04:33:11;15.55;;;12.02;;
77625;SDS011;66794;43.764;10.436;2024-03-22T04:35:57;13.77;;;11.23;;
77625;SDS011;66794;43.764;10.436;2024-03-22T04:38:43;15.88;;;11.20;;
77625;SDS011;66794;43.764;10.436;2024-03-22T04:41:28;14.45;;;10.95;;
77625;SDS011;66794;43.764;10.436;2024-03-22T04:44:14;17.77;;;11.82;;
77625;SDS011;66794;43.764;10.436;2024-03-22T04:47:00;15.88;;;11.15;;
77625;SDS011;66794;43.764;10.436;2024-03-22T04:49:45;15.98;;;11.52;;
77625;SDS011;66794;43.764;10.436;2024-03-22T04:52:31;17.48;;;12.45;;
77625;SDS011;66794;43.764;10.436;2024-03-22T04:55:17;16.50;;;11.27;;
77625;SDS011;66794;43.764;10.436;2024-03-22T04:58:03;17.80;;;11.15;;
77625;SDS011;66794;43.764;10.436;2024-03-22T05:00:49;15.70;;;11.52;;
77625;SDS011;66794;43.764;10.436;2024-03-22T05:03:34;26.35;;;11.00;;
77625;SDS011;66794;43.764;10.436;2024-03-22T05:06:20;16.40;;;10.05;;
77625;SDS011;66794;43.764;10.436;2024-03-22T05:09:06;13.63;;;10.88;;
77625;SDS011;66794;43.764;10.436;2024-03-22T05:11:55;14.95;;;11.68;;
77625;SDS011;66794;43.764;10.436;2024-03-22T05:14:41;18.15;;;11.40;;
77625;SDS011;66794;43.764;10.436;2024-03-22T05:17:26;16.80;;;12.02;;
77625;SDS011;66794;43.764;10.436;2024-03-22T05:20:12;14.85;;;10.98;;
77625;SDS011;66794;43.764;10.436;2024-03-22T05:22:58;13.38;;;10.52;;
77625;SDS011;66794;43.764;10.436;2024-03-22T05:25:44;19.38;;;13.18;;
77625;SDS011;66794;43.764;10.436;2024-03-22T05:28:29;33.38;;;13.80;;
77625;SDS011;66794;43.764;10.436;2024-03-22T05:31:16;49.60;;;15.32;;
77625;SDS011;66794;43.764;10.436;2024-03-22T05:34:01;94.70;;;16.85;;
77625;SDS011;66794;43.764;10.436;2024-03-22T05:36:47;136.07;;;17.65;;
77625;SDS011;66794;43.764;10.436;2024-03-22T05:39:32;50.20;;;13.95;;
77625;SDS011;66794;43.764;10.436;2024-03-22T05:42:19;50.92;;;15.70;;
77625;SDS011;66794;43.764;10.436;2024-03-22T05:45:05;41.40;;;15.82;;
77625;SDS011;66794;43.764;10.436;2024-03-22T05:47:51;22.33;;;13.60;;
77625;SDS011;66794;43.764;10.436;2024-03-22T05:50:37;76.35;;;13.18;;
77625;SDS011;66794;43.764;10.436;2024-03-22T05:53:22;44.70;;;13.02;;
77625;SDS011;66794;43.764;10.436;2024-03-22T05:56:09;59.63;;;12.95;;
77625;SDS011;66794;43.764;10.436;2024-03-22T05:58:54;32.08;;;13.05;;
77625;SDS011;66794;43.764;10.436;2024-03-22T06:01:40;22.02;;;13.48;;
77625;SDS011;66794;43.764;10.436;2024-03-22T06:04:26;59.95;;;15.00;;
77625;SDS011;66794;43.764;10.436;2024-03-22T06:07:11;37.95;;;15.15;;
77625;SDS011;66794;43.764;10.436;2024-03-22T06:09:57;68.95;;;12.82;;
77625;SDS011;66794;43.764;10.436;2024-03-22T06:12:43;21.17;;;12.93;;
77625;SDS011;66794;43.764;10.436;2024-03-22T06:15:32;46.25;;;11.20;;
77625;SDS011;66794;43.764;10.436;2024-03-22T06:18:17;28.85;;;12.52;;
77625;SDS011;66794;43.764;10.436;2024-03-22T06:21:03;31.75;;;12.70;;
77625;SDS011;66794;43.764;10.436;2024-03-22T06:23:51;33.42;;;12.55;;
77625;SDS011;66794;43.764;10.436;2024-03-22T06:26:36;21.02;;;12.73;;
77625;SDS011;66794;43.764;10.436;2024-03-22T06:29:22;55.03;;;14.32;;
77625;SDS011;66794;43.764;10.436;2024-03-22T06:32:08;31.33;;;14.35;;
77625;SDS011;66794;43.764;10.436;2024-03-22T06:34:53;41.33;;;13.68;;
77625;SDS011;66794;43.764;10.436;2024-03-22T06:37:39;23.27;;;13.80;;
77625;SDS011;66794;43.764;10.436;2024-03-22T06:40:25;24.75;;;14.15;;
77625;SDS011;66794;43.764;10.436;2024-03-22T06:43:11;17.38;;;14.35;;
77625;SDS011;66794;43.764;10.436;2024-03-22T06:45:56;17.30;;;13.95;;
77625;SDS011;66794;43.764;10.436;2024-03-22T06:48:42;20.95;;;14.63;;
77625;SDS011;66794;43.764;10.436;2024-03-22T06:51:27;18.63;;;15.13;;
77625;SDS011;66794;43.764;10.436;2024-03-22T06:54:13;18.33;;;14.52;;
77625;SDS011;66794;43.764;10.436;2024-03-22T06:56:59;20.30;;;14.63;;
77625;SDS011;66794;43.764;10.436;2024-03-22T06:59:44;18.77;;;14.38;;
77625;SDS011;66794;43.764;10.436;2024-03-22T07:02:30;18.80;;;15.43;;
77625;SDS011;66794;43.764;10.436;2024-03-22T07:05:15;23.30;;;16.35;;
77625;SDS011;66794;43.764;10.436;2024-03-22T07:08:01;20.95;;;15.82;;
77625;SDS011;66794;43.764;10.436;2024-03-22T07:10:47;21.25;;;16.70;;
77625;SDS011;66794;43.764;10.436;2024-03-22T07:13:32;19.63;;;15.48;;
77625;SDS011;66794;43.764;10.436;2024-03-22T07:16:18;23.25;;;16.27;;
77625;SDS011;66794;43.764;10.436;2024-03-22T07:19:04;23.40;;;16.42;;
77625;SDS011;66794;43.764;10.436;2024-03-22T07:21:50;25.10;;;16.30;;
77625;SDS011;66794;43.764;10.436;2024-03-22T07:24:35;21.42;;;16.45;;
77625;SDS011;66794;43.764;10.436;2024-03-22T07:27:21;21.83;;;16.38;;
77625;SDS011;66794;43.764;10.436;2024-03-22T07:30:07;22.42;;;16.85;;
77625;SDS011;66794;43.764;10.436;2024-03-22T07:32:52;22.70;;;16.88;;
77625;SDS011;66794;43.764;10.436;2024-03-22T07:35:39;21.70;;;18.30;;
77625;SDS011;66794;43.764;10.436;2024-03-22T07:38:24;21.58;;;18.60;;
77625;SDS011;66794;43.764;10.436;2024-03-22T07:41:10;23.30;;;17.55;;
77625;SDS011;66794;43.764;10.436;2024-03-22T07:43:56;21.90;;;16.85;;
77625;SDS011;66794;43.764;10.436;2024-03-22T07:46:41;21.30;;;16.33;;
77625;SDS011;66794;43.764;10.436;2024-03-22T07:49:27;20.58;;;15.75;;
77625;SDS011;66794;43.764;10.436;2024-03-22T07:52:12;21.15;;;15.93;;
77625;SDS011;66794;43.764;10.436;2024-03-22T07:54:58;19.17;;;14.93;;
77625;SDS011;66794;43.764;10.436;2024-03-22T07:57:44;36.90;;;28.35;;
77625;SDS011;66794;43.764;10.436;2024-03-22T08:00:29;38.35;;;29.67;;
77625;SDS011;66794;43.764;10.436;2024-03-22T08:03:15;24.67;;;19.67;;
77625;SDS011;66794;43.764;10.436;2024-03-22T08:06:01;24.48;;;18.30;;
77625;SDS011;66794;43.764;10.436;2024-03-22T08:08:47;24.83;;;18.23;;
77625;SDS011;66794;43.764;10.436;2024-03-22T08:11:32;29.95;;;22.25;;
77625;SDS011;66794;43.764;10.436;2024-03-22T08:14:18;32.90;;;23.75;;
77625;SDS011;66794;43.764;10.436;2024-03-22T08:17:04;30.30;;;24.02;;
77625;SDS011;66794;43.764;10.436;2024-03-22T08:19:49;33.88;;;23.67;;
77625;SDS011;66794;43.764;10.436;2024-03-22T08:22:35;31.23;;;23.63;;
77625;SDS011;66794;43.764;10.436;2024-03-22T08:25:21;24.25;;;19.42;;
77625;SDS011;66794;43.764;10.436;2024-03-22T08:28:08;20.05;;;15.55;;
77625;SDS011;66794;43.764;10.436;2024-03-22T08:30:54;21.85;;;15.27;;
77625;SDS011;66794;43.764;10.436;2024-03-22T08:33:39;18.85;;;14.35;;
77625;SDS011;66794;43.764;10.436;2024-03-22T08:36:25;22.13;;;14.75;;
77625;SDS011;66794;43.764;10.436;2024-03-22T08:39:11;22.55;;;17.73;;
77625;SDS011;66794;43.764;10.436;2024-03-22T08:41:57;21.80;;;15.90;;
77625;SDS011;66794;43.764;10.436;2024-03-22T08:44:42;29.35;;;19.75;;
77625;SDS011;66794;43.764;10.436;2024-03-22T08:47:28;26.55;;;17.73;;
77625;SDS011;66794;43.764;10.436;2024-03-22T08:50:14;26.85;;;19.65;;
77625;SDS011;66794;43.764;10.436;2024-03-22T08:53:00;28.50;;;21.33;;
77625;SDS011;66794;43.764;10.436;2024-03-22T08:55:48;29.55;;;20.63;;
77625;SDS011;66794;43.764;10.436;2024-03-22T08:58:34;29.58;;;21.02;;
77625;SDS011;66794;43.764;10.436;2024-03-22T09:01:19;36.05;;;23.27;;
77625;SDS011;66794;43.764;10.436;2024-03-22T09:04:05;40.85;;;27.63;;
77625;SDS011;66794;43.764;10.436;2024-03-22T09:06:50;29.40;;;21.20;;
77625;SDS011;66794;43.764;10.436;2024-03-22T09:09:36;31.73;;;23.27;;
77625;SDS011;66794;43.764;10.436;2024-03-22T09:12:22;39.42;;;27.67;;
77625;SDS011;66794;43.764;10.436;2024-03-22T09:15:08;35.47;;;24.10;;
77625;SDS011;66794;43.764;10.436;2024-03-22T09:17:53;36.78;;;24.63;;
77625;SDS011;66794;43.764;10.436;2024-03-22T09:20:39;39.45;;;26.80;;
77625;SDS011;66794;43.764;10.436;2024-03-22T09:23:25;35.17;;;24.95;;
77625;SDS011;66794;43.764;10.436;2024-03-22T09:26:10;32.13;;;23.20;;
77625;SDS011;66794;43.764;10.436;2024-03-22T09:28:56;36.33;;;22.15;;
77625;SDS011;66794;43.764;10.436;2024-03-22T09:31:41;30.40;;;22.10;;
77625;SDS011;66794;43.764;10.436;2024-03-22T09:34:27;31.52;;;22.13;;
77625;SDS011;66794;43.764;10.436;2024-03-22T09:37:13;31.85;;;24.35;;
77625;SDS011;66794;43.764;10.436;2024-03-22T09:39:59;32.58;;;21.85;;
77625;SDS011;66794;43.764;10.436;2024-03-22T09:42:45;32.60;;;22.65;;
77625;SDS011;66794;43.764;10.436;2024-03-22T09:45:32;37.88;;;29.85;;
77625;SDS011;66794;43.764;10.436;2024-03-22T09:48:18;24.58;;;18.85;;
77625;SDS011;66794;43.764;10.436;2024-03-22T09:51:04;22.67;;;17.23;;
77625;SDS011;66794;43.764;10.436;2024-03-22T09:53:49;22.05;;;16.60;;
77625;SDS011;66794;43.764;10.436;2024-03-22T09:56:39;23.65;;;16.95;;
77625;SDS011;66794;43.764;10.436;2024-03-22T09:59:25;19.88;;;14.35;;
77625;SDS011;66794;43.764;10.436;2024-03-22T10:02:11;21.27;;;13.75;;
77625;SDS011;66794;43.764;10.436;2024-03-22T10:04:57;25.30;;;16.08;;
77625;SDS011;66794;43.764;10.436;2024-03-22T10:07:44;21.08;;;15.85;;
77625;SDS011;66794;43.764;10.436;2024-03-22T10:10:29;19.98;;;14.43;;
77625;SDS011;66794;43.764;10.436;2024-03-22T10:13:16;19.23;;;13.80;;
77625;SDS011;66794;43.764;10.436;2024-03-22T10:16:01;16.48;;;12.65;;
77625;SDS011;66794;43.764;10.436;2024-03-22T10:18:47;18.20;;;12.68;;
77625;SDS011;66794;43.764;10.436;2024-03-22T10:21:33;18.25;;;13.32;;
77625;SDS011;66794;43.764;10.436;2024-03-22T10:24:19;23.50;;;14.45;;
77625;SDS011;66794;43.764;10.436;2024-03-22T10:27:08;20.60;;;14.13;;
77625;SDS011;66794;43.764;10.436;2024-03-22T10:29:54;20.35;;;14.82;;
77625;SDS011;66794;43.764;10.436;2024-03-22T10:32:39;18.23;;;13.55;;
77625;SDS011;66794;43.764;10.436;2024-03-22T10:35:25;19.02;;;13.82;;
77625;SDS011;66794;43.764;10.436;2024-03-22T10:38:12;16.33;;;12.73;;
77625;SDS011;66794;43.764;10.436;2024-03-22T10:40:58;18.05;;;11.43;;
77625;SDS011;66794;43.764;10.436;2024-03-22T10:43:45;16.23;;;10.52;;
77625;SDS011;66794;43.764;10.436;2024-03-22T10:46:31;13.27;;;10.05;;
77625;SDS011;66794;43.764;10.436;2024-03-22T10:49:20;13.48;;;8.10;;
77625;SDS011;66794;43.764;10.436;2024-03-22T10:52:06;11.95;;;9.45;;
77625;SDS011;66794;43.764;10.436;2024-03-22T10:54:53;12.32;;;9.82;;
77625;SDS011;66794;43.764;10.436;2024-03-22T10:57:39;17.67;;;13.63;;
77625;SDS011;66794;43.764;10.436;2024-03-22T11:00:28;39.17;;;35.17;;
77625;SDS011;66794;43.764;10.436;2024-03-22T11:03:15;100.50;;;89.85;;
77625;SDS011;66794;43.764;10.436;2024-03-22T11:06:00;125.20;;;112.10;;
77625;SDS011;66794;43.764;10.436;2024-03-22T11:08:51;14.00;;;10.00;;
77625;SDS011;66794;43.764;10.436;2024-03-22T11:11:37;31.35;;;25.67;;
77625;SDS011;66794;43.764;10.436;2024-03-22T11:14:23;12.73;;;8.77;;
77625;SDS011;66794;43.764;10.436;2024-03-22T11:17:11;20.88;;;11.88;;
77625;SDS011;66794;43.764;10.436;2024-03-22T11:19:57;11.13;;;8.70;;
77625;SDS011;66794;43.764;10.436;2024-03-22T11:22:43;14.20;;;10.32;;
77625;SDS011;66794;43.764;10.436;2024-03-22T11:25:28;12.20;;;9.88;;
77625;SDS011;66794;43.764;10.436;2024-03-22T11:28:14;17.50;;;14.50;;
77625;SDS011;66794;43.764;10.436;2024-03-22T11:31:00;12.82;;;8.98;;
77625;SDS011;66794;43.764;10.436;2024-03-22T11:33:45;12.52;;;9.20;;
77625;SDS011;66794;43.764;10.436;2024-03-22T11:36:31;13.38;;;9.48;;
77625;SDS011;66794;43.764;10.436;2024-03-22T11:39:17;31.63;;;27.63;;
77625;SDS011;66794;43.764;10.436;2024-03-22T11:42:04;27.67;;;21.70;;
77625;SDS011;66794;43.764;10.436;2024-03-22T11:44:50;19.88;;;14.90;;
77625;SDS011;66794;43.764;10.436;2024-03-22T11:47:35;12.93;;;9.50;;
77625;SDS011;66794;43.764;10.436;2024-03-22T11:50:21;12.15;;;9.57;;
77625;SDS011;66794;43.764;10.436;2024-03-22T11:53:07;16.30;;;8.48;;
77625;SDS011;66794;43.764;10.436;2024-03-22T11:55:53;11.50;;;8.18;;
77625;SDS011;66794;43.764;10.436;2024-03-22T11:58:39;15.50;;;9.05;;
77625;SDS011;66794;43.764;10.436;2024-03-22T12:01:24;16.55;;;9.38;;
77625;SDS011;66794;43.764;10.436;2024-03-22T12:04:10;13.02;;;9.63;;
77625;SDS011;66794;43.764;10.436;2024-03-22T12:07:00;10.88;;;8.13;;
77625;SDS011;66794;43.764;10.436;2024-03-22T12:09:45;16.60;;;9.20;;
77625;SDS011;66794;43.764;10.436;2024-03-22T12:12:31;14.23;;;8.85;;
77625;SDS011;66794;43.764;10.436;2024-03-22T12:15:17;11.90;;;7.60;;
77625;SDS011;66794;43.764;10.436;2024-03-22T12:18:02;11.45;;;8.70;;
77625;SDS011;66794;43.764;10.436;2024-03-22T12:20:48;14.73;;;8.10;;
77625;SDS011;66794;43.764;10.436;2024-03-22T12:23:34;12.13;;;9.15;;
77625;SDS011;66794;43.764;10.436;2024-03-22T12:26:19;11.60;;;8.35;;
77625;SDS011;66794;43.764;10.436;2024-03-22T12:29:05;11.15;;;7.63;;
77625;SDS011;66794;43.764;10.436;2024-03-22T12:31:52;14.85;;;8.98;;
77625;SDS011;66794;43.764;10.436;2024-03-22T12:34:38;13.63;;;8.90;;
77625;SDS011;66794;43.764;10.436;2024-03-22T12:37:24;10.18;;;7.68;;
77625;SDS011;66794;43.764;10.436;2024-03-22T12:40:09;9.75;;;7.90;;
77625;SDS011;66794;43.764;10.436;2024-03-22T12:42:55;11.13;;;7.75;;
77625;SDS011;66794;43.764;10.436;2024-03-22T12:45:41;13.82;;;8.07;;
77625;SDS011;66794;43.764;10.436;2024-03-22T12:48:27;9.55;;;7.05;;
77625;SDS011;66794;43.764;10.436;2024-03-22T12:51:13;9.20;;;7.45;;
77625;SDS011;66794;43.764;10.436;2024-03-22T12:53:59;9.52;;;7.63;;
77625;SDS011;66794;43.764;10.436;2024-03-22T12:56:45;12.38;;;7.85;;
77625;SDS011;66794;43.764;10.436;2024-03-22T12:59:31;10.63;;;7.55;;
77625;SDS011;66794;43.764;10.436;2024-03-22T13:02:16;11.45;;;7.20;;
77625;SDS011;66794;43.764;10.436;2024-03-22T13:05:02;9.82;;;7.07;;
77625;SDS011;66794;43.764;10.436;2024-03-22T13:07:48;10.38;;;6.82;;
77625;SDS011;66794;43.764;10.436;2024-03-22T13:10:33;8.60;;;7.40;;
77625;SDS011;66794;43.764;10.436;2024-03-22T13:13:19;12.43;;;7.35;;
77625;SDS011;66794;43.764;10.436;2024-03-22T13:16:05;11.95;;;7.45;;
77625;SDS011;66794;43.764;10.436;2024-03-22T13:18:52;10.20;;;7.45;;
77625;SDS011;66794;43.764;10.436;2024-03-22T13:21:38;11.35;;;7.07;;
77625;SDS011;66794;43.764;10.436;2024-03-22T13:24:23;11.98;;;6.88;;
77625;SDS011;66794;43.764;10.436;2024-03-22T13:27:09;7.53;;;6.45;;
77625;SDS011;66794;43.764;10.436;2024-03-22T13:29:55;10.02;;;6.57;;
77625;SDS011;66794;43.764;10.436;2024-03-22T13:32:41;7.97;;;6.75;;
77625;SDS011;66794;43.764;10.436;2024-03-22T13:35:26;8.68;;;6.68;;
77625;SDS011;66794;43.764;10.436;2024-03-22T13:38:12;12.45;;;7.05;;
77625;SDS011;66794;43.764;10.436;2024-03-22T13:40:59;9.70;;;7.13;;
77625;SDS011;66794;43.764;10.436;2024-03-22T13:43:45;12.32;;;8.68;;
77625;SDS011;66794;43.764;10.436;2024-03-22T13:46:31;11.32;;;7.95;;
77625;SDS011;66794;43.764;10.436;2024-03-22T13:49:17;10.18;;;8.18;;
77625;SDS011;66794;43.764;10.436;2024-03-22T13:52:03;10.70;;;7.78;;
77625;SDS011;66794;43.764;10.436;2024-03-22T13:54:50;10.15;;;7.20;;
77625;SDS011;66794;43.764;10.436;2024-03-22T13:57:35;10.82;;;7.50;;
77625;SDS011;66794;43.764;10.436;2024-03-22T14:00:21;11.20;;;8.05;;
77625;SDS011;66794;43.764;10.436;2024-03-22T14:03:06;11.50;;;7.80;;
77625;SDS011;66794;43.764;10.436;2024-03-22T14:05:52;10.43;;;7.78;;
77625;SDS011;66794;43.764;10.436;2024-03-22T14:08:38;11.23;;;7.63;;
77625;SDS011;66794;43.764;10.436;2024-03-22T14:11:23;13.02;;;7.65;;
77625;SDS011;66794;43.764;10.436;2024-03-22T14:14:09;12.43;;;7.50;;
77625;SDS011;66794;43.764;10.436;2024-03-22T14:16:57;12.00;;;7.75;;
77625;SDS011;66794;43.764;10.436;2024-03-22T14:19:42;10.23;;;7.65;;
77625;SDS011;66794;43.764;10.436;2024-03-22T14:22:28;9.45;;;7.50;;
77625;SDS011;66794;43.764;10.436;2024-03-22T14:25:14;11.15;;;7.57;;
77625;SDS011;66794;43.764;10.436;2024-03-22T14:28:00;14.88;;;7.50;;
77625;SDS011;66794;43.764;10.436;2024-03-22T14:30:45;13.45;;;7.65;;
77625;SDS011;66794;43.764;10.436;2024-03-22T14:33:31;11.10;;;7.00;;
77625;SDS011;66794;43.764;10.436;2024-03-22T14:36:16;9.90;;;7.32;;
77625;SDS011;66794;43.764;10.436;2024-03-22T14:39:02;10.27;;;7.57;;
77625;SDS011;66794;43.764;10.436;2024-03-22T14:41:50;9.57;;;7.50;;
77625;SDS011;66794;43.764;10.436;2024-03-22T14:44:36;12.52;;;7.72;;
77625;SDS011;66794;43.764;10.436;2024-03-22T14:47:21;10.38;;;7.65;;
77625;SDS011;66794;43.764;10.436;2024-03-22T14:50:07;11.43;;;8.40;;
77625;SDS011;66794;43.764;10.436;2024-03-22T14:52:53;11.43;;;7.78;;
77625;SDS011;66794;43.764;10.436;2024-03-22T14:55:39;12.55;;;8.52;;
77625;SDS011;66794;43.764;10.436;2024-03-22T14:58:25;10.82;;;7.97;;
77625;SDS011;66794;43.764;10.436;2024-03-22T15:01:11;14.35;;;7.82;;
77625;SDS011;66794;43.764;10.436;2024-03-22T15:03:57;13.00;;;7.90;;
77625;SDS011;66794;43.764;10.436;2024-03-22T15:06:43;11.27;;;7.60;;
77625;SDS011;66794;43.764;10.436;2024-03-22T15:09:30;10.48;;;6.78;;
77625;SDS011;66794;43.764;10.436;2024-03-22T15:12:15;13.38;;;7.22;;
77625;SDS011;66794;43.764;10.436;2024-03-22T15:15:01;9.32;;;7.35;;
77625;SDS011;66794;43.764;10.436;2024-03-22T15:17:46;11.13;;;7.40;;
77625;SDS011;66794;43.764;10.436;2024-03-22T15:20:32;10.20;;;7.28;;
77625;SDS011;66794;43.764;10.436;2024-03-22T15:23:18;11.65;;;7.85;;
77625;SDS011;66794;43.764;10.436;2024-03-22T15:26:05;10.80;;;7.80;;
77625;SDS011;66794;43.764;10.436;2024-03-22T15:28:51;10.27;;;7.97;;
77625;SDS011;66794;43.764;10.436;2024-03-22T15:31:37;11.90;;;8.20;;
77625;SDS011;66794;43.764;10.436;2024-03-22T15:34:22;12.07;;;8.40;;
77625;SDS011;66794;43.764;10.436;2024-03-22T15:37:08;14.63;;;9.07;;
77625;SDS011;66794;43.764;10.436;2024-03-22T15:39:53;11.95;;;9.60;;
77625;SDS011;66794;43.764;10.436;2024-03-22T15:42:39;12.60;;;8.38;;
77625;SDS011;66794;43.764;10.436;2024-03-22T15:45:25;12.35;;;9.20;;
77625;SDS011;66794;43.764;10.436;2024-03-22T15:48:11;22.08;;;9.07;;
77625;SDS011;66794;43.764;10.436;2024-03-22T15:50:57;13.13;;;8.70;;
77625;SDS011;66794;43.764;10.436;2024-03-22T15:53:42;16.33;;;10.05;;
77625;SDS011;66794;43.764;10.436;2024-03-22T15:56:28;14.13;;;9.68;;
77625;SDS011;66794;43.764;10.436;2024-03-22T15:59:13;35.05;;;25.30;;
77625;SDS011;66794;43.764;10.436;2024-03-22T16:01:59;25.10;;;19.52;;